sensor_id;sensor_type;location;lat;lon;timestamp;P1;durP1;ratioP1;P2;durP2;ratioP2
16037;SDS011;8123;50.906;6.172;2024-02-04T00:00:24;8.17;;;6.87;;
16037;SDS011;8123;50.906;6.172;2024-02-04T00:02:49;7.77;;;6.50;;
16037;SDS011;8123;50.906;6.172;2024-02-04T00:05:15;7.20;;;5.90;;
16037;SDS011;8123;50.906;6.172;2024-02-04T00:07:41;11.10;;;6.03;;
16037;SDS011;8123;50.906;6.172;2024-02-04T00:10:06;8.60;;;7.00;;
16037;SDS011;8123;50.906;6.172;2024-02-04T00:12:32;11.57;;;5.50;;
16037;SDS011;8123;50.906;6.172;2024-02-04T00:14:58;8.60;;;6.90;;
16037;SDS011;8123;50.906;6.172;2024-02-04T00:17:24;7.57;;;6.50;;
16037;SDS011;8123;50.906;6.172;2024-02-04T00:19:54;6.97;;;5.93;;
16037;SDS011;8123;50.906;6.172;2024-02-04T00:22:21;6.60;;;5.50;;
16037;SDS011;8123;50.906;6.172;2024-02-04T00:24:47;6.93;;;5.13;;
16037;SDS011;8123;50.906;6.172;2024-02-04T00:27:12;6.20;;;5.60;;
16037;SDS011;8123;50.906;6.172;2024-02-04T00:29:38;6.43;;;5.53;;
16037;SDS011;8123;50.906;6.172;2024-02-04T00:32:04;7.17;;;5.23;;
16037;SDS011;8123;50.906;6.172;2024-02-04T00:34:30;5.23;;;4.73;;
16037;SDS011;8123;50.906;6.172;2024-02-04T00:36:55;6.63;;;5.20;;
16037;SDS011;8123;50.906;6.172;2024-02-04T00:39:21;7.47;;;5.67;;
16037;SDS011;8123;50.906;6.172;2024-02-04T00:41:46;6.83;;;4.70;;
16037;SDS011;8123;50.906;6.172;2024-02-04T00:44:12;5.77;;;4.30;;
16037;SDS011;8123;50.906;6.172;2024-02-04T00:46:38;5.23;;;4.60;;
16037;SDS011;8123;50.906;6.172;2024-02-04T00:49:03;6.80;;;4.80;;
16037;SDS011;8123;50.906;6.172;2024-02-04T00:51:29;6.10;;;5.50;;
16037;SDS011;8123;50.906;6.172;2024-02-04T00:53:57;5.73;;;4.60;;
16037;SDS011;8123;50.906;6.172;2024-02-04T00:56:23;9.10;;;5.73;;
16037;SDS011;8123;50.906;6.172;2024-02-04T00:58:49;5.47;;;4.60;;
16037;SDS011;8123;50.906;6.172;2024-02-04T01:01:14;6.20;;;5.50;;
16037;SDS011;8123;50.906;6.172;2024-02-04T01:03:40;7.07;;;4.70;;
16037;SDS011;8123;50.906;6.172;2024-02-04T01:06:05;7.10;;;5.40;;
16037;SDS011;8123;50.906;6.172;2024-02-04T01:08:31;6.50;;;5.37;;
16037;SDS011;8123;50.906;6.172;2024-02-04T01:10:57;11.63;;;5.33;;
16037;SDS011;8123;50.906;6.172;2024-02-04T01:13:22;8.10;;;5.33;;
16037;SDS011;8123;50.906;6.172;2024-02-04T01:15:48;6.00;;;4.67;;
16037;SDS011;8123;50.906;6.172;2024-02-04T01:18:14;8.97;;;6.00;;
16037;SDS011;8123;50.906;6.172;2024-02-04T01:20:39;6.30;;;4.93;;
16037;SDS011;8123;50.906;6.172;2024-02-04T01:23:05;6.20;;;5.20;;
16037;SDS011;8123;50.906;6.172;2024-02-04T01:25:31;8.23;;;5.30;;
16037;SDS011;8123;50.906;6.172;2024-02-04T01:27:56;8.60;;;5.00;;
16037;SDS011;8123;50.906;6.172;2024-02-04T01:30:22;9.20;;;5.83;;
16037;SDS011;8123;50.906;6.172;2024-02-04T01:32:47;9.80;;;6.30;;
16037;SDS011;8123;50.906;6.172;2024-02-04T01:35:13;8.60;;;6.53;;
16037;SDS011;8123;50.906;6.172;2024-02-04T01:37:40;8.00;;;6.10;;
16037;SDS011;8123;50.906;6.172;2024-02-04T01:40:06;7.90;;;4.37;;
16037;SDS011;8123;50.906;6.172;2024-02-04T01:42:32;8.90;;;6.33;;
16037;SDS011;8123;50.906;6.172;2024-02-04T01:44:58;6.03;;;5.10;;
16037;SDS011;8123;50.906;6.172;2024-02-04T01:47:24;6.77;;;5.53;;
16037;SDS011;8123;50.906;6.172;2024-02-04T01:49:49;7.40;;;5.77;;
16037;SDS011;8123;50.906;6.172;2024-02-04T01:52:15;5.53;;;5.00;;
16037;SDS011;8123;50.906;6.172;2024-02-04T01:54:42;5.13;;;4.53;;
16037;SDS011;8123;50.906;6.172;2024-02-04T01:57:09;4.83;;;4.37;;
16037;SDS011;8123;50.906;6.172;2024-02-04T01:59:36;4.57;;;4.17;;
16037;SDS011;8123;50.906;6.172;2024-02-04T02:02:06;5.90;;;4.33;;
16037;SDS011;8123;50.906;6.172;2024-02-04T02:04:33;5.53;;;4.70;;
16037;SDS011;8123;50.906;6.172;2024-02-04T02:07:00;5.70;;;5.13;;
16037;SDS011;8123;50.906;6.172;2024-02-04T02:09:25;8.07;;;5.00;;
16037;SDS011;8123;50.906;6.172;2024-02-04T02:15:01;6.57;;;5.53;;
16037;SDS011;8123;50.906;6.172;2024-02-04T02:17:44;5.50;;;5.00;;
16037;SDS011;8123;50.906;6.172;2024-02-04T02:20:17;5.90;;;5.30;;
16037;SDS011;8123;50.906;6.172;2024-02-04T02:22:50;6.97;;;5.20;;
16037;SDS011;8123;50.906;6.172;2024-02-04T02:25:28;6.77;;;5.13;;
16037;SDS011;8123;50.906;6.172;2024-02-04T02:27:55;8.50;;;6.00;;
16037;SDS011;8123;50.906;6.172;2024-02-04T02:30:21;6.93;;;4.97;;
16037;SDS011;8123;50.906;6.172;2024-02-04T02:32:47;6.40;;;4.93;;
16037;SDS011;8123;50.906;6.172;2024-02-04T02:35:14;6.30;;;5.00;;
16037;SDS011;8123;50.906;6.172;2024-02-04T02:38:05;5.83;;;4.70;;
16037;SDS011;8123;50.906;6.172;2024-02-04T02:40:48;6.90;;;5.87;;
16037;SDS011;8123;50.906;6.172;2024-02-04T02:43:18;5.57;;;4.90;;
16037;SDS011;8123;50.906;6.172;2024-02-04T02:45:45;5.70;;;4.50;;
16037;SDS011;8123;50.906;6.172;2024-02-04T02:48:11;6.80;;;5.90;;
16037;SDS011;8123;50.906;6.172;2024-02-04T02:50:37;9.40;;;5.27;;
16037;SDS011;8123;50.906;6.172;2024-02-04T02:53:03;6.50;;;5.00;;
16037;SDS011;8123;50.906;6.172;2024-02-04T02:55:29;5.90;;;4.70;;
16037;SDS011;8123;50.906;6.172;2024-02-04T02:57:55;6.37;;;5.70;;
16037;SDS011;8123;50.906;6.172;2024-02-04T03:00:21;10.07;;;5.33;;
16037;SDS011;8123;50.906;6.172;2024-02-04T03:02:47;5.80;;;5.07;;
16037;SDS011;8123;50.906;6.172;2024-02-04T03:05:13;8.10;;;5.33;;
16037;SDS011;8123;50.906;6.172;2024-02-04T03:07:40;6.27;;;5.27;;
16037;SDS011;8123;50.906;6.172;2024-02-04T03:10:06;6.73;;;4.73;;
16037;SDS011;8123;50.906;6.172;2024-02-04T03:12:33;6.60;;;4.93;;
16037;SDS011;8123;50.906;6.172;2024-02-04T03:14:58;5.97;;;4.90;;
16037;SDS011;8123;50.906;6.172;2024-02-04T03:17:24;6.10;;;5.33;;
16037;SDS011;8123;50.906;6.172;2024-02-04T03:19:50;6.97;;;5.27;;
16037;SDS011;8123;50.906;6.172;2024-02-04T03:22:21;8.57;;;5.50;;
16037;SDS011;8123;50.906;6.172;2024-02-04T03:24:47;7.30;;;5.53;;
16037;SDS011;8123;50.906;6.172;2024-02-04T03:27:13;7.43;;;5.40;;
16037;SDS011;8123;50.906;6.172;2024-02-04T03:29:40;5.23;;;4.73;;
16037;SDS011;8123;50.906;6.172;2024-02-04T03:32:06;6.00;;;5.30;;
16037;SDS011;8123;50.906;6.172;2024-02-04T03:34:31;5.13;;;4.53;;
16037;SDS011;8123;50.906;6.172;2024-02-04T03:36:57;5.37;;;4.00;;
16037;SDS011;8123;50.906;6.172;2024-02-04T03:39:22;7.10;;;5.43;;
16037;SDS011;8123;50.906;6.172;2024-02-04T03:41:48;8.60;;;5.57;;
16037;SDS011;8123;50.906;6.172;2024-02-04T03:44:14;11.03;;;4.30;;
16037;SDS011;8123;50.906;6.172;2024-02-04T03:46:39;8.07;;;5.83;;
16037;SDS011;8123;50.906;6.172;2024-02-04T03:49:06;7.50;;;5.30;;
16037;SDS011;8123;50.906;6.172;2024-02-04T03:51:32;6.73;;;5.57;;
16037;SDS011;8123;50.906;6.172;2024-02-04T03:53:58;8.50;;;4.90;;
16037;SDS011;8123;50.906;6.172;2024-02-04T03:56:24;6.07;;;4.97;;
16037;SDS011;8123;50.906;6.172;2024-02-04T03:58:49;11.83;;;5.00;;
16037;SDS011;8123;50.906;6.172;2024-02-04T04:01:15;7.90;;;5.50;;
16037;SDS011;8123;50.906;6.172;2024-02-04T04:03:41;6.73;;;5.10;;
16037;SDS011;8123;50.906;6.172;2024-02-04T04:06:08;7.43;;;5.90;;
16037;SDS011;8123;50.906;6.172;2024-02-04T04:08:34;13.93;;;7.07;;
16037;SDS011;8123;50.906;6.172;2024-02-04T04:11:00;10.00;;;6.77;;
16037;SDS011;8123;50.906;6.172;2024-02-04T04:13:26;10.83;;;6.83;;
16037;SDS011;8123;50.906;6.172;2024-02-04T04:15:53;7.57;;;5.57;;
16037;SDS011;8123;50.906;6.172;2024-02-04T04:18:19;9.50;;;6.00;;
16037;SDS011;8123;50.906;6.172;2024-02-04T04:20:45;6.80;;;5.10;;
16037;SDS011;8123;50.906;6.172;2024-02-04T04:23:11;12.80;;;7.13;;
16037;SDS011;8123;50.906;6.172;2024-02-04T04:25:37;12.90;;;6.27;;
16037;SDS011;8123;50.906;6.172;2024-02-04T04:28:03;7.90;;;5.50;;
16037;SDS011;8123;50.906;6.172;2024-02-04T04:30:29;9.87;;;6.33;;
16037;SDS011;8123;50.906;6.172;2024-02-04T04:32:56;8.10;;;6.70;;
16037;SDS011;8123;50.906;6.172;2024-02-04T04:35:23;6.20;;;5.20;;
16037;SDS011;8123;50.906;6.172;2024-02-04T04:37:48;6.30;;;5.57;;
16037;SDS011;8123;50.906;6.172;2024-02-04T04:40:14;10.43;;;5.70;;
16037;SDS011;8123;50.906;6.172;2024-02-04T04:42:39;8.90;;;5.80;;
16037;SDS011;8123;50.906;6.172;2024-02-04T04:45:07;7.70;;;5.20;;
16037;SDS011;8123;50.906;6.172;2024-02-04T04:47:33;13.83;;;6.23;;
16037;SDS011;8123;50.906;6.172;2024-02-04T04:49:59;9.60;;;6.07;;
16037;SDS011;8123;50.906;6.172;2024-02-04T04:52:25;11.00;;;6.63;;
16037;SDS011;8123;50.906;6.172;2024-02-04T04:54:50;9.20;;;5.50;;
16037;SDS011;8123;50.906;6.172;2024-02-04T04:57:16;10.03;;;6.00;;
16037;SDS011;8123;50.906;6.172;2024-02-04T04:59:41;11.43;;;6.70;;
16037;SDS011;8123;50.906;6.172;2024-02-04T05:02:08;11.97;;;7.00;;
16037;SDS011;8123;50.906;6.172;2024-02-04T05:04:35;14.67;;;9.20;;
16037;SDS011;8123;50.906;6.172;2024-02-04T05:07:01;19.53;;;8.87;;
16037;SDS011;8123;50.906;6.172;2024-02-04T05:09:27;14.90;;;9.67;;
16037;SDS011;8123;50.906;6.172;2024-02-04T05:11:52;14.90;;;8.93;;
16037;SDS011;8123;50.906;6.172;2024-02-04T05:14:18;16.70;;;10.33;;
16037;SDS011;8123;50.906;6.172;2024-02-04T05:16:44;17.40;;;10.47;;
16037;SDS011;8123;50.906;6.172;2024-02-04T05:19:11;13.57;;;9.53;;
16037;SDS011;8123;50.906;6.172;2024-02-04T05:21:40;16.63;;;10.57;;
16037;SDS011;8123;50.906;6.172;2024-02-04T05:24:06;20.53;;;10.27;;
16037;SDS011;8123;50.906;6.172;2024-02-04T05:26:31;19.90;;;11.10;;
16037;SDS011;8123;50.906;6.172;2024-02-04T05:28:57;18.33;;;10.53;;
16037;SDS011;8123;50.906;6.172;2024-02-04T05:31:23;16.93;;;9.97;;
16037;SDS011;8123;50.906;6.172;2024-02-04T05:33:48;9.20;;;6.00;;
16037;SDS011;8123;50.906;6.172;2024-02-04T05:36:16;7.43;;;5.50;;
16037;SDS011;8123;50.906;6.172;2024-02-04T05:38:43;7.77;;;5.60;;
16037;SDS011;8123;50.906;6.172;2024-02-04T05:41:10;5.93;;;4.87;;
16037;SDS011;8123;50.906;6.172;2024-02-04T05:43:35;15.50;;;5.43;;
16037;SDS011;8123;50.906;6.172;2024-02-04T05:46:01;5.53;;;4.80;;
16037;SDS011;8123;50.906;6.172;2024-02-04T05:48:27;5.27;;;4.70;;
16037;SDS011;8123;50.906;6.172;2024-02-04T05:50:53;5.50;;;3.80;;
16037;SDS011;8123;50.906;6.172;2024-02-04T05:53:18;9.20;;;5.93;;
16037;SDS011;8123;50.906;6.172;2024-02-04T05:55:44;5.47;;;4.90;;
16037;SDS011;8123;50.906;6.172;2024-02-04T05:58:11;5.67;;;4.50;;
16037;SDS011;8123;50.906;6.172;2024-02-04T06:00:38;6.20;;;3.60;;
16037;SDS011;8123;50.906;6.172;2024-02-04T06:03:04;6.07;;;4.50;;
16037;SDS011;8123;50.906;6.172;2024-02-04T06:05:31;5.07;;;3.87;;
16037;SDS011;8123;50.906;6.172;2024-02-04T06:07:57;4.97;;;3.20;;
16037;SDS011;8123;50.906;6.172;2024-02-04T06:10:23;4.37;;;3.97;;
16037;SDS011;8123;50.906;6.172;2024-02-04T06:12:48;5.40;;;3.60;;
16037;SDS011;8123;50.906;6.172;2024-02-04T06:15:14;6.40;;;3.90;;
16037;SDS011;8123;50.906;6.172;2024-02-04T06:17:41;3.40;;;2.77;;
16037;SDS011;8123;50.906;6.172;2024-02-04T06:20:07;3.73;;;3.43;;
16037;SDS011;8123;50.906;6.172;2024-02-04T06:22:36;3.93;;;3.63;;
16037;SDS011;8123;50.906;6.172;2024-02-04T06:25:02;4.83;;;4.30;;
16037;SDS011;8123;50.906;6.172;2024-02-04T06:27:29;3.10;;;2.93;;
16037;SDS011;8123;50.906;6.172;2024-02-04T06:29:55;3.03;;;2.83;;
16037;SDS011;8123;50.906;6.172;2024-02-04T06:32:20;6.70;;;2.67;;
16037;SDS011;8123;50.906;6.172;2024-02-04T06:34:46;4.00;;;3.60;;
16037;SDS011;8123;50.906;6.172;2024-02-04T06:37:12;3.53;;;3.27;;
16037;SDS011;8123;50.906;6.172;2024-02-04T06:39:37;3.17;;;2.97;;
16037;SDS011;8123;50.906;6.172;2024-02-04T06:42:03;6.80;;;3.30;;
16037;SDS011;8123;50.906;6.172;2024-02-04T06:44:29;3.00;;;2.80;;
16037;SDS011;8123;50.906;6.172;2024-02-04T06:46:55;3.30;;;3.10;;
16037;SDS011;8123;50.906;6.172;2024-02-04T06:49:21;4.00;;;3.43;;
16037;SDS011;8123;50.906;6.172;2024-02-04T06:51:47;3.33;;;3.10;;
16037;SDS011;8123;50.906;6.172;2024-02-04T06:54:13;7.40;;;5.10;;
16037;SDS011;8123;50.906;6.172;2024-02-04T06:56:39;2.70;;;2.53;;
16037;SDS011;8123;50.906;6.172;2024-02-04T06:59:04;2.70;;;2.50;;
16037;SDS011;8123;50.906;6.172;2024-02-04T07:01:30;2.97;;;2.80;;
16037;SDS011;8123;50.906;6.172;2024-02-04T07:03:56;3.53;;;2.50;;
16037;SDS011;8123;50.906;6.172;2024-02-04T07:06:21;3.77;;;3.00;;
16037;SDS011;8123;50.906;6.172;2024-02-04T07:08:47;3.23;;;3.03;;
16037;SDS011;8123;50.906;6.172;2024-02-04T07:11:13;2.40;;;2.30;;
16037;SDS011;8123;50.906;6.172;2024-02-04T07:13:38;4.90;;;3.53;;
16037;SDS011;8123;50.906;6.172;2024-02-04T07:16:04;5.33;;;3.10;;
16037;SDS011;8123;50.906;6.172;2024-02-04T07:18:29;3.90;;;3.60;;
16037;SDS011;8123;50.906;6.172;2024-02-04T07:20:56;6.97;;;3.93;;
16037;SDS011;8123;50.906;6.172;2024-02-04T07:23:22;7.80;;;3.77;;
16037;SDS011;8123;50.906;6.172;2024-02-04T07:25:47;4.97;;;3.50;;
16037;SDS011;8123;50.906;6.172;2024-02-04T07:28:13;5.50;;;3.97;;
16037;SDS011;8123;50.906;6.172;2024-02-04T07:30:39;3.40;;;3.10;;
16037;SDS011;8123;50.906;6.172;2024-02-04T07:33:04;4.20;;;3.80;;
16037;SDS011;8123;50.906;6.172;2024-02-04T07:35:30;7.63;;;5.60;;
16037;SDS011;8123;50.906;6.172;2024-02-04T07:37:56;5.47;;;3.97;;
16037;SDS011;8123;50.906;6.172;2024-02-04T07:40:22;10.57;;;4.80;;
16037;SDS011;8123;50.906;6.172;2024-02-04T07:42:47;5.20;;;4.50;;
16037;SDS011;8123;50.906;6.172;2024-02-04T07:45:13;9.70;;;5.83;;
16037;SDS011;8123;50.906;6.172;2024-02-04T07:47:39;8.47;;;5.50;;
16037;SDS011;8123;50.906;6.172;2024-02-04T07:50:04;5.53;;;4.90;;
16037;SDS011;8123;50.906;6.172;2024-02-04T07:52:30;13.50;;;5.03;;
16037;SDS011;8123;50.906;6.172;2024-02-04T07:54:56;6.93;;;5.53;;
16037;SDS011;8123;50.906;6.172;2024-02-04T07:57:22;11.10;;;4.73;;
16037;SDS011;8123;50.906;6.172;2024-02-04T07:59:47;4.60;;;4.20;;
16037;SDS011;8123;50.906;6.172;2024-02-04T08:02:13;6.97;;;5.60;;
16037;SDS011;8123;50.906;6.172;2024-02-04T08:04:41;7.07;;;4.80;;
16037;SDS011;8123;50.906;6.172;2024-02-04T08:07:07;4.57;;;3.97;;
16037;SDS011;8123;50.906;6.172;2024-02-04T08:09:33;4.50;;;3.50;;
16037;SDS011;8123;50.906;6.172;2024-02-04T08:11:59;4.53;;;3.70;;
16037;SDS011;8123;50.906;6.172;2024-02-04T08:14:24;6.40;;;4.27;;
16037;SDS011;8123;50.906;6.172;2024-02-04T08:16:50;4.10;;;3.20;;
16037;SDS011;8123;50.906;6.172;2024-02-04T08:19:16;3.97;;;3.40;;
16037;SDS011;8123;50.906;6.172;2024-02-04T08:21:42;3.67;;;3.17;;
16037;SDS011;8123;50.906;6.172;2024-02-04T08:24:07;2.73;;;2.20;;
16037;SDS011;8123;50.906;6.172;2024-02-04T08:26:33;2.70;;;2.50;;
16037;SDS011;8123;50.906;6.172;2024-02-04T08:28:59;2.43;;;2.33;;
16037;SDS011;8123;50.906;6.172;2024-02-04T08:31:25;1.90;;;1.80;;
16037;SDS011;8123;50.906;6.172;2024-02-04T08:33:51;1.80;;;1.70;;
16037;SDS011;8123;50.906;6.172;2024-02-04T08:36:17;2.60;;;2.40;;
16037;SDS011;8123;50.906;6.172;2024-02-04T08:38:43;2.50;;;2.30;;
16037;SDS011;8123;50.906;6.172;2024-02-04T08:41:09;2.20;;;2.10;;
16037;SDS011;8123;50.906;6.172;2024-02-04T08:43:34;2.50;;;2.40;;
16037;SDS011;8123;50.906;6.172;2024-02-04T08:46:00;2.60;;;2.50;;
16037;SDS011;8123;50.906;6.172;2024-02-04T08:48:26;6.40;;;3.10;;
16037;SDS011;8123;50.906;6.172;2024-02-04T08:50:51;2.63;;;2.47;;
16037;SDS011;8123;50.906;6.172;2024-02-04T08:53:19;17.17;;;2.67;;
16037;SDS011;8123;50.906;6.172;2024-02-04T08:55:45;3.37;;;3.10;;
16037;SDS011;8123;50.906;6.172;2024-02-04T08:58:10;3.57;;;2.80;;
16037;SDS011;8123;50.906;6.172;2024-02-04T09:00:36;3.93;;;3.63;;
16037;SDS011;8123;50.906;6.172;2024-02-04T09:03:02;4.67;;;3.83;;
16037;SDS011;8123;50.906;6.172;2024-02-04T09:05:27;3.60;;;2.60;;
16037;SDS011;8123;50.906;6.172;2024-02-04T09:07:53;5.13;;;4.63;;
16037;SDS011;8123;50.906;6.172;2024-02-04T09:10:20;4.37;;;3.57;;
16037;SDS011;8123;50.906;6.172;2024-02-04T09:12:46;3.33;;;3.13;;
16037;SDS011;8123;50.906;6.172;2024-02-04T09:15:12;3.23;;;2.93;;
16037;SDS011;8123;50.906;6.172;2024-02-04T09:17:37;9.47;;;3.97;;
16037;SDS011;8123;50.906;6.172;2024-02-04T09:20:03;4.43;;;3.27;;
16037;SDS011;8123;50.906;6.172;2024-02-04T09:22:29;3.80;;;3.50;;
16037;SDS011;8123;50.906;6.172;2024-02-04T09:24:56;5.93;;;3.87;;
16037;SDS011;8123;50.906;6.172;2024-02-04T09:27:22;4.20;;;3.20;;
16037;SDS011;8123;50.906;6.172;2024-02-04T09:29:48;6.53;;;3.20;;
16037;SDS011;8123;50.906;6.172;2024-02-04T09:32:13;5.93;;;4.40;;
16037;SDS011;8123;50.906;6.172;2024-02-04T09:34:39;6.57;;;3.60;;
16037;SDS011;8123;50.906;6.172;2024-02-04T09:37:05;4.73;;;4.17;;
16037;SDS011;8123;50.906;6.172;2024-02-04T09:39:32;5.73;;;3.73;;
16037;SDS011;8123;50.906;6.172;2024-02-04T09:41:57;6.20;;;4.00;;
16037;SDS011;8123;50.906;6.172;2024-02-04T09:44:24;3.77;;;3.20;;
16037;SDS011;8123;50.906;6.172;2024-02-04T09:46:50;4.10;;;3.60;;
16037;SDS011;8123;50.906;6.172;2024-02-04T09:49:17;6.30;;;4.00;;
16037;SDS011;8123;50.906;6.172;2024-02-04T09:51:43;5.50;;;4.47;;
16037;SDS011;8123;50.906;6.172;2024-02-04T09:54:09;4.83;;;3.87;;
16037;SDS011;8123;50.906;6.172;2024-02-04T09:56:37;8.93;;;4.60;;
16037;SDS011;8123;50.906;6.172;2024-02-04T09:59:03;5.17;;;3.60;;
16037;SDS011;8123;50.906;6.172;2024-02-04T10:01:31;5.07;;;4.30;;
16037;SDS011;8123;50.906;6.172;2024-02-04T10:03:57;3.90;;;3.50;;
16037;SDS011;8123;50.906;6.172;2024-02-04T10:06:23;4.10;;;3.70;;
16037;SDS011;8123;50.906;6.172;2024-02-04T10:08:49;4.63;;;3.07;;
16037;SDS011;8123;50.906;6.172;2024-02-04T10:11:15;3.20;;;2.97;;
16037;SDS011;8123;50.906;6.172;2024-02-04T10:13:42;3.90;;;2.80;;
16037;SDS011;8123;50.906;6.172;2024-02-04T10:16:09;3.93;;;2.80;;
16037;SDS011;8123;50.906;6.172;2024-02-04T10:18:34;2.87;;;2.67;;
16037;SDS011;8123;50.906;6.172;2024-02-04T10:21:00;2.97;;;2.77;;
16037;SDS011;8123;50.906;6.172;2024-02-04T10:23:26;3.10;;;2.63;;
16037;SDS011;8123;50.906;6.172;2024-02-04T10:25:59;3.03;;;2.60;;
16037;SDS011;8123;50.906;6.172;2024-02-04T10:28:25;2.90;;;2.70;;
16037;SDS011;8123;50.906;6.172;2024-02-04T10:30:50;2.80;;;2.60;;
16037;SDS011;8123;50.906;6.172;2024-02-04T10:33:16;2.30;;;2.20;;
16037;SDS011;8123;50.906;6.172;2024-02-04T10:35:42;3.23;;;3.03;;
16037;SDS011;8123;50.906;6.172;2024-02-04T10:38:08;4.20;;;3.80;;
16037;SDS011;8123;50.906;6.172;2024-02-04T10:40:35;3.40;;;3.17;;
16037;SDS011;8123;50.906;6.172;2024-02-04T10:43:03;3.57;;;3.27;;
16037;SDS011;8123;50.906;6.172;2024-02-04T10:45:32;3.70;;;3.33;;
16037;SDS011;8123;50.906;6.172;2024-02-04T10:48:00;3.70;;;3.40;;
16037;SDS011;8123;50.906;6.172;2024-02-04T10:50:27;5.97;;;3.27;;
16037;SDS011;8123;50.906;6.172;2024-02-04T10:52:57;3.83;;;3.60;;
16037;SDS011;8123;50.906;6.172;2024-02-04T10:55:28;4.00;;;3.70;;
16037;SDS011;8123;50.906;6.172;2024-02-04T10:57:56;8.03;;;4.07;;
16037;SDS011;8123;50.906;6.172;2024-02-04T11:00:23;5.43;;;4.60;;
16037;SDS011;8123;50.906;6.172;2024-02-04T11:02:49;6.27;;;4.53;;
16037;SDS011;8123;50.906;6.172;2024-02-04T11:05:19;7.77;;;4.60;;
16037;SDS011;8123;50.906;6.172;2024-02-04T11:07:46;9.90;;;5.07;;
16037;SDS011;8123;50.906;6.172;2024-02-04T11:10:12;6.30;;;5.40;;
16037;SDS011;8123;50.906;6.172;2024-02-04T11:12:39;8.50;;;5.63;;
16037;SDS011;8123;50.906;6.172;2024-02-04T11:15:07;8.30;;;5.57;;
16037;SDS011;8123;50.906;6.172;2024-02-04T11:20:27;4.90;;;4.43;;
16037;SDS011;8123;50.906;6.172;2024-02-04T11:23:31;7.33;;;5.73;;
16037;SDS011;8123;50.906;6.172;2024-02-04T11:26:17;7.33;;;3.50;;
16037;SDS011;8123;50.906;6.172;2024-02-04T11:28:44;11.67;;;4.87;;
16037;SDS011;8123;50.906;6.172;2024-02-04T11:31:18;8.20;;;4.20;;
16037;SDS011;8123;50.906;6.172;2024-02-04T11:33:45;8.10;;;4.37;;
16037;SDS011;8123;50.906;6.172;2024-02-04T11:36:14;10.73;;;4.20;;
16037;SDS011;8123;50.906;6.172;2024-02-04T11:38:42;5.40;;;4.30;;
16037;SDS011;8123;50.906;6.172;2024-02-04T11:41:07;5.10;;;4.10;;
16037;SDS011;8123;50.906;6.172;2024-02-04T11:43:33;4.90;;;3.47;;
16037;SDS011;8123;50.906;6.172;2024-02-04T11:46:00;4.23;;;3.90;;
16037;SDS011;8123;50.906;6.172;2024-02-04T11:48:37;4.50;;;4.20;;
16037;SDS011;8123;50.906;6.172;2024-02-04T11:51:04;3.63;;;3.33;;
16037;SDS011;8123;50.906;6.172;2024-02-04T11:53:30;5.47;;;3.17;;
16037;SDS011;8123;50.906;6.172;2024-02-04T11:56:02;3.97;;;3.67;;
16037;SDS011;8123;50.906;6.172;2024-02-04T11:58:28;3.33;;;3.13;;
16037;SDS011;8123;50.906;6.172;2024-02-04T12:00:56;4.23;;;3.93;;
16037;SDS011;8123;50.906;6.172;2024-02-04T12:03:32;3.10;;;2.90;;
16037;SDS011;8123;50.906;6.172;2024-02-04T12:05:59;4.13;;;3.83;;
16037;SDS011;8123;50.906;6.172;2024-02-04T12:08:28;7.73;;;5.93;;
16037;SDS011;8123;50.906;6.172;2024-02-04T12:10:55;4.10;;;3.80;;
16037;SDS011;8123;50.906;6.172;2024-02-04T12:13:21;8.10;;;3.70;;
16037;SDS011;8123;50.906;6.172;2024-02-04T12:15:47;4.03;;;3.73;;
16037;SDS011;8123;50.906;6.172;2024-02-04T12:18:13;4.17;;;3.87;;
16037;SDS011;8123;50.906;6.172;2024-02-04T12:20:41;5.07;;;3.87;;
16037;SDS011;8123;50.906;6.172;2024-02-04T12:23:07;4.50;;;4.13;;
16037;SDS011;8123;50.906;6.172;2024-02-04T12:25:32;5.63;;;5.13;;
16037;SDS011;8123;50.906;6.172;2024-02-04T12:27:59;7.03;;;4.40;;
16037;SDS011;8123;50.906;6.172;2024-02-04T12:30:28;5.10;;;4.60;;
16037;SDS011;8123;50.906;6.172;2024-02-04T12:33:01;7.00;;;5.27;;
16037;SDS011;8123;50.906;6.172;2024-02-04T12:35:29;5.70;;;5.00;;
16037;SDS011;8123;50.906;6.172;2024-02-04T12:37:55;6.83;;;4.90;;
16037;SDS011;8123;50.906;6.172;2024-02-04T12:40:26;11.47;;;4.87;;
16037;SDS011;8123;50.906;6.172;2024-02-04T12:42:56;6.90;;;5.37;;
16037;SDS011;8123;50.906;6.172;2024-02-04T12:45:24;4.97;;;4.50;;
16037;SDS011;8123;50.906;6.172;2024-02-04T12:47:54;7.73;;;5.13;;
16037;SDS011;8123;50.906;6.172;2024-02-04T12:50:22;4.93;;;4.40;;
16037;SDS011;8123;50.906;6.172;2024-02-04T12:52:48;4.87;;;4.47;;
16037;SDS011;8123;50.906;6.172;2024-02-04T12:55:57;6.10;;;3.63;;
16037;SDS011;8123;50.906;6.172;2024-02-04T12:58:08;5.13;;;4.33;;
16037;SDS011;8123;50.906;6.172;2024-02-04T13:00:37;6.03;;;3.50;;
16037;SDS011;8123;50.906;6.172;2024-02-04T13:03:03;3.20;;;3.00;;
16037;SDS011;8123;50.906;6.172;2024-02-04T13:05:30;3.70;;;3.40;;
16037;SDS011;8123;50.906;6.172;2024-02-04T13:07:59;3.27;;;3.10;;
16037;SDS011;8123;50.906;6.172;2024-02-04T13:10:33;2.50;;;2.40;;
16037;SDS011;8123;50.906;6.172;2024-02-04T13:13:01;2.23;;;2.13;;
16037;SDS011;8123;50.906;6.172;2024-02-04T13:15:27;2.90;;;2.80;;
16037;SDS011;8123;50.906;6.172;2024-02-04T13:17:57;3.43;;;2.60;;
16037;SDS011;8123;50.906;6.172;2024-02-04T13:20:24;2.73;;;2.63;;
16037;SDS011;8123;50.906;6.172;2024-02-04T13:22:50;2.73;;;2.60;;
16037;SDS011;8123;50.906;6.172;2024-02-04T13:25:18;2.73;;;2.63;;
16037;SDS011;8123;50.906;6.172;2024-02-04T13:27:45;2.80;;;2.60;;
16037;SDS011;8123;50.906;6.172;2024-02-04T13:30:11;2.93;;;2.70;;
16037;SDS011;8123;50.906;6.172;2024-02-04T13:32:40;2.50;;;2.40;;
16037;SDS011;8123;50.906;6.172;2024-02-04T13:35:07;2.43;;;2.33;;
16037;SDS011;8123;50.906;6.172;2024-02-04T13:37:37;2.83;;;2.27;;
16037;SDS011;8123;50.906;6.172;2024-02-04T13:40:04;2.33;;;2.10;;
16037;SDS011;8123;50.906;6.172;2024-02-04T13:42:31;2.60;;;2.50;;
16037;SDS011;8123;50.906;6.172;2024-02-04T13:44:58;2.73;;;2.57;;
16037;SDS011;8123;50.906;6.172;2024-02-04T13:47:25;2.60;;;2.50;;
16037;SDS011;8123;50.906;6.172;2024-02-04T13:49:51;2.70;;;2.50;;
16037;SDS011;8123;50.906;6.172;2024-02-04T13:52:16;2.57;;;2.47;;
16037;SDS011;8123;50.906;6.172;2024-02-04T13:54:42;3.37;;;3.17;;
16037;SDS011;8123;50.906;6.172;2024-02-04T13:57:08;4.47;;;4.17;;
16037;SDS011;8123;50.906;6.172;2024-02-04T13:59:34;3.40;;;3.20;;
16037;SDS011;8123;50.906;6.172;2024-02-04T14:02:00;3.50;;;3.27;;
16037;SDS011;8123;50.906;6.172;2024-02-04T14:04:26;3.10;;;2.80;;
16037;SDS011;8123;50.906;6.172;2024-02-04T14:06:52;3.33;;;3.23;;
16037;SDS011;8123;50.906;6.172;2024-02-04T14:09:17;3.13;;;2.93;;
16037;SDS011;8123;50.906;6.172;2024-02-04T14:11:43;2.80;;;2.70;;
16037;SDS011;8123;50.906;6.172;2024-02-04T14:14:08;2.87;;;2.63;;
16037;SDS011;8123;50.906;6.172;2024-02-04T14:16:34;3.70;;;3.50;;
16037;SDS011;8123;50.906;6.172;2024-02-04T14:19:00;4.80;;;4.40;;
16037;SDS011;8123;50.906;6.172;2024-02-04T14:21:25;6.13;;;5.47;;
16037;SDS011;8123;50.906;6.172;2024-02-04T14:23:51;6.03;;;5.47;;
16037;SDS011;8123;50.906;6.172;2024-02-04T14:26:17;8.13;;;6.10;;
16037;SDS011;8123;50.906;6.172;2024-02-04T14:28:43;5.53;;;5.00;;
16037;SDS011;8123;50.906;6.172;2024-02-04T14:31:09;5.27;;;4.77;;
16037;SDS011;8123;50.906;6.172;2024-02-04T14:33:35;5.60;;;5.07;;
16037;SDS011;8123;50.906;6.172;2024-02-04T14:36:00;4.10;;;3.90;;
16037;SDS011;8123;50.906;6.172;2024-02-04T14:38:26;4.30;;;3.90;;
16037;SDS011;8123;50.906;6.172;2024-02-04T14:40:52;3.80;;;3.50;;
16037;SDS011;8123;50.906;6.172;2024-02-04T14:43:18;4.23;;;3.93;;
16037;SDS011;8123;50.906;6.172;2024-02-04T14:45:46;4.27;;;3.43;;
16037;SDS011;8123;50.906;6.172;2024-02-04T14:48:12;3.83;;;3.20;;
16037;SDS011;8123;50.906;6.172;2024-02-04T14:50:38;6.97;;;6.27;;
16037;SDS011;8123;50.906;6.172;2024-02-04T14:53:03;7.10;;;6.40;;
16037;SDS011;8123;50.906;6.172;2024-02-04T14:55:29;6.10;;;5.50;;
16037;SDS011;8123;50.906;6.172;2024-02-04T14:57:54;9.67;;;5.23;;
16037;SDS011;8123;50.906;6.172;2024-02-04T15:00:20;4.57;;;3.60;;
16037;SDS011;8123;50.906;6.172;2024-02-04T15:02:49;5.30;;;3.70;;